Time,TemperatureF,DewpointF,PressureIn,WindDirection,WindDirectionDegrees,WindSpeedMPH,WindSpeedGustMPH,Humidity,HourlyPrecipIn,Conditions,Clouds,dailyrainin,SoftwareType,DateUTC
2013-01-05 00:04:00,32.0,27.0,29.80,SW,215,2.0,4.0,82,0.00,,,0.00,weatherlink.com 1.10,2013-01-05 05:04:00,
2013-01-05 00:19:00,32.1,27.0,29.80,SW,236,0.0,3.0,81,0.00,,,0.00,weatherlink.com 1.10,2013-01-05 05:19:00,
2013-01-05 00:34:00,31.3,26.0,29.79,SSW,212,0.0,3.0,82,0.00,,,0.00,weatherlink.com 1.10,2013-01-05 05:34:00,
2013-01-05 00:49:00,30.8,26.0,29.80,SW,218,0.0,4.0,82,0.00,,,0.00,weatherlink.com 1.10,2013-01-05 05:49:00,
2013-01-05 01:04:00,30.7,26.0,29.80,WSW,239,0.0,0.0,82,0.00,,,0.00,weatherlink.com 1.10,2013-01-05 06:04:00,
2013-01-05 01:19:00,31.3,26.0,29.81,WNW,289,3.0,3.0,82,0.00,,,0.00,weatherlink.com 1.10,2013-01-05 06:19:00,
2013-01-05 01:34:00,32.7,26.0,29.82,WNW,292,3.0,8.0,76,0.00,,,0.00,weatherlink.com 1.10,2013-01-05 06:34:00,
2013-01-05 01:49:00,34.4,26.0,29.82,West,267,0.0,7.0,71,0.00,,,0.00,weatherlink.com 1.10,2013-01-05 06:49:00,
2013-01-05 02:04:00,35.1,26.0,29.83,WNW,292,0.0,7.0,69,0.00,,,0.00,weatherlink.com 1.10,2013-01-05 07:04:00,
2013-01-05 02:19:00,35.2,26.0,29.84,West,262,0.0,5.0,70,0.00,,,0.00,weatherlink.com 1.10,2013-01-05 07:19:00,
2013-01-05 02:34:00,35.2,26.0,29.85,NW,323,0.0,4.0,70,0.00,,,0.00,weatherlink.com 1.10,2013-01-05 07:34:00,
2013-01-05 02:49:00,35.4,26.0,29.86,West,275,0.0,4.0,69,0.00,,,0.00,weatherlink.com 1.10,2013-01-05 07:49:00,
2013-01-05 03:04:00,35.1,26.0,29.86,SSW,208,1.0,4.0,70,0.00,,,0.00,weatherlink.com 1.10,2013-01-05 08:04:00,
2013-01-05 03:19:00,35.0,26.0,29.87,WSW,248,0.0,2.0,71,0.00,,,0.00,weatherlink.com 1.10,2013-01-05 08:19:00,
2013-01-05 03:35:00,34.6,27.0,29.88,WNW,297,0.0,1.0,73,0.00,,,0.00,weatherlink.com 1.10,2013-01-05 08:35:00,
2013-01-05 03:50:00,34.6,26.0,29.88,NW,309,2.0,4.0,72,0.00,,,0.00,weatherlink.com 1.10,2013-01-05 08:50:00,
2013-01-05 04:05:00,34.4,26.0,29.89,WSW,242,0.0,1.0,72,0.00,,,0.00,weatherlink.com 1.10,2013-01-05 09:05:00,
2013-01-05 04:20:00,34.2,26.0,29.89,WSW,241,1.0,3.0,72,0.00,,,0.00,weatherlink.com 1.10,2013-01-05 09:20:00,
2013-01-05 04:35:00,34.1,26.0,29.90,SW,227,0.0,2.0,71,0.00,,,0.00,weatherlink.com 1.10,2013-01-05 09:35:00,
2013-01-05 04:50:00,34.3,25.0,29.91,WNW,294,0.0,7.0,69,0.00,,,0.00,weatherlink.com 1.10,2013-01-05 09:50:00,
2013-01-05 05:05:00,34.4,24.0,29.92,WNW,298,0.0,8.0,67,0.00,,,0.00,weatherlink.com 1.10,2013-01-05 10:05:00,
2013-01-05 05:20:00,33.1,28.0,29.94,NNW,338,1.0,8.0,80,0.00,,,0.00,weatherlink.com 1.10,2013-01-05 10:20:00,
2013-01-05 05:35:00,32.4,24.0,29.96,West,264,1.0,8.0,72,0.00,,,0.00,weatherlink.com 1.10,2013-01-05 10:35:00,
2013-01-05 05:50:00,32.1,20.0,29.98,NW,309,0.0,4.0,61,0.00,,,0.00,weatherlink.com 1.10,2013-01-05 10:50:00,
2013-01-05 06:05:00,31.1,21.0,30.00,West,268,0.0,1.0,65,0.00,,,0.00,weatherlink.com 1.10,2013-01-05 11:05:00,
2013-01-05 06:20:00,30.0,20.0,30.01,East,90,1.0,2.0,67,0.00,,,0.00,weatherlink.com 1.10,2013-01-05 11:20:00,
2013-01-05 06:35:00,29.7,19.0,30.02,NW,320,0.0,1.0,64,0.00,,,0.00,weatherlink.com 1.10,2013-01-05 11:35:00,
2013-01-05 06:50:00,30.7,17.0,30.04,North,356,3.0,7.0,58,0.00,,,0.00,weatherlink.com 1.10,2013-01-05 11:50:00,
2013-01-05 07:05:00,30.4,17.0,30.06,NNW,335,1.0,6.0,59,0.00,,,0.00,weatherlink.com 1.10,2013-01-05 12:05:00,
2013-01-05 07:20:00,30.3,17.0,30.08,NNW,329,2.0,7.0,59,0.00,,,0.00,weatherlink.com 1.10,2013-01-05 12:20:00,
2013-01-05 07:35:00,30.2,16.0,30.09,NW,319,2.0,8.0,57,0.00,,,0.00,weatherlink.com 1.10,2013-01-05 12:35:00,
2013-01-05 07:50:00,30.1,18.0,30.11,NNW,339,1.0,7.0,60,0.00,,,0.00,weatherlink.com 1.10,2013-01-05 12:50:00,
2013-01-05 08:05:00,29.6,18.0,30.12,NNW,329,1.0,3.0,61,0.00,,,0.00,weatherlink.com 1.10,2013-01-05 13:05:00,
2013-01-05 08:20:00,29.2,18.0,30.13,North,350,4.0,7.0,62,0.00,,,0.00,weatherlink.com 1.10,2013-01-05 13:20:00,
2013-01-05 08:35:00,28.9,17.0,30.14,NNW,339,5.0,8.0,62,0.00,,,0.00,weatherlink.com 1.10,2013-01-05 13:35:00,
2013-01-05 08:51:00,28.8,18.0,30.15,NNW,348,2.0,8.0,63,0.00,,,0.00,weatherlink.com 1.10,2013-01-05 13:51:00,
2013-01-05 09:06:00,28.7,17.0,30.16,NW,318,2.0,6.0,62,0.00,,,0.00,weatherlink.com 1.10,2013-01-05 14:06:00,
2013-01-05 09:21:00,28.9,17.0,30.17,NW,323,0.0,5.0,62,0.00,,,0.00,weatherlink.com 1.10,2013-01-05 14:21:00,
2013-01-05 09:36:00,29.2,17.0,30.18,NW,324,2.0,9.0,61,0.00,,,0.00,weatherlink.com 1.10,2013-01-05 14:36:00,
2013-01-05 09:51:00,29.4,17.0,30.19,NNW,333,2.0,8.0,59,0.00,,,0.00,weatherlink.com 1.10,2013-01-05 14:51:00,
2013-01-05 10:06:00,29.3,16.0,30.20,North,351,2.0,9.0,58,0.00,,,0.00,weatherlink.com 1.10,2013-01-05 15:06:00,
2013-01-05 10:21:00,28.7,18.0,30.21,NNE,32,7.0,11.0,65,0.00,,,0.00,weatherlink.com 1.10,2013-01-05 15:21:00,
2013-01-05 10:36:00,27.4,18.0,30.22,North,354,6.0,10.0,69,0.00,,,0.00,weatherlink.com 1.10,2013-01-05 15:36:00,
2013-01-05 10:51:00,26.4,18.0,30.23,NNW,342,1.0,10.0,71,0.00,,,0.00,weatherlink.com 1.10,2013-01-05 15:51:00,
2013-01-05 11:06:00,25.9,17.0,30.23,NNW,329,1.0,8.0,68,0.00,,,0.00,weatherlink.com 1.10,2013-01-05 16:06:00,
2013-01-05 11:22:00,26.1,16.0,30.23,North,2,2.0,7.0,66,0.00,,,0.00,weatherlink.com 1.10,2013-01-05 16:22:00,
2013-01-05 11:37:00,25.9,16.0,30.24,NE,34,6.0,8.0,66,0.00,,,0.00,weatherlink.com 1.10,2013-01-05 16:37:00,
2013-01-05 11:52:00,25.6,16.0,30.24,North,10,3.0,8.0,66,0.00,,,0.00,weatherlink.com 1.10,2013-01-05 16:52:00,
2013-01-05 12:07:00,26.3,16.0,30.23,NNW,344,2.0,8.0,66,0.00,,,0.00,weatherlink.com 1.10,2013-01-05 17:07:00,
2013-01-05 12:22:00,26.1,16.0,30.22,North,350,3.0,9.0,66,0.00,,,0.00,weatherlink.com 1.10,2013-01-05 17:22:00,
2013-01-05 12:37:00,26.0,16.0,30.22,NNE,18,1.0,9.0,66,0.00,,,0.00,weatherlink.com 1.10,2013-01-05 17:37:00,
2013-01-05 12:52:00,25.7,16.0,30.23,NNE,18,2.0,9.0,66,0.00,,,0.00,weatherlink.com 1.10,2013-01-05 17:52:00,
2013-01-05 13:07:00,25.4,15.0,30.23,North,352,4.0,7.0,64,0.00,,,0.00,weatherlink.com 1.10,2013-01-05 18:07:00,
2013-01-05 13:22:00,25.4,14.0,30.22,North,352,3.0,8.0,63,0.00,,,0.00,weatherlink.com 1.10,2013-01-05 18:22:00,
2013-01-05 13:37:00,25.3,14.0,30.22,North,5,3.0,7.0,63,0.00,,,0.00,weatherlink.com 1.10,2013-01-05 18:37:00,
2013-01-05 13:52:00,25.9,15.0,30.22,North,5,0.0,4.0,63,0.00,,,0.00,weatherlink.com 1.10,2013-01-05 18:52:00,
2013-01-05 14:07:00,26.2,15.0,30.22,NW,317,2.0,3.0,62,0.00,,,0.00,weatherlink.com 1.10,2013-01-05 19:07:00,
2013-01-05 14:22:00,26.0,14.0,30.22,North,4,2.0,4.0,61,0.00,,,0.00,weatherlink.com 1.10,2013-01-05 19:22:00,
2013-01-05 14:37:00,25.7,14.0,30.22,NNW,333,2.0,5.0,62,0.00,,,0.00,weatherlink.com 1.10,2013-01-05 19:37:00,
2013-01-05 14:52:00,26.1,15.0,30.22,NW,313,0.0,5.0,62,0.00,,,0.00,weatherlink.com 1.10,2013-01-05 19:52:00,
2013-01-05 15:07:00,26.1,14.0,30.22,NNW,328,2.0,3.0,61,0.00,,,0.00,weatherlink.com 1.10,2013-01-05 20:07:00,
2013-01-05 15:22:00,25.9,14.0,30.22,NNW,328,0.0,2.0,61,0.00,,,0.00,weatherlink.com 1.10,2013-01-05 20:22:00,
2013-01-05 15:37:00,25.3,14.0,30.22,NW,312,0.0,3.0,62,0.00,,,0.00,weatherlink.com 1.10,2013-01-05 20:37:00,
2013-01-05 15:52:00,24.6,14.0,30.22,NW,319,0.0,2.0,63,0.00,,,0.00,weatherlink.com 1.10,2013-01-05 20:52:00,
2013-01-05 16:07:00,23.9,13.0,30.22,NNW,331,0.0,2.0,64,0.00,,,0.00,weatherlink.com 1.10,2013-01-05 21:07:00,
2013-01-05 16:22:00,23.2,13.0,30.22,NNW,329,0.0,1.0,66,0.00,,,0.00,weatherlink.com 1.10,2013-01-05 21:22:00,
2013-01-05 16:37:00,22.4,13.0,30.23,NW,319,0.0,1.0,67,0.00,,,0.00,weatherlink.com 1.10,2013-01-05 21:37:00,
2013-01-05 16:52:00,22.4,13.0,30.23,NW,321,0.0,1.0,67,0.00,,,0.00,weatherlink.com 1.10,2013-01-05 21:52:00,
2013-01-05 17:07:00,21.9,13.0,30.23,NW,321,0.0,0.0,68,0.00,,,0.00,weatherlink.com 1.10,2013-01-05 22:07:00,
2013-01-05 17:22:00,20.0,12.0,30.23,NW,321,0.0,0.0,71,0.00,,,0.00,weatherlink.com 1.10,2013-01-05 22:22:00,
2013-01-05 17:37:00,18.7,12.0,30.23,NW,321,0.0,0.0,75,0.00,,,0.00,weatherlink.com 1.10,2013-01-05 22:37:00,
2013-01-05 17:52:00,17.7,11.0,30.24,NW,322,0.0,0.0,74,0.00,,,0.00,weatherlink.com 1.10,2013-01-05 22:52:00,
2013-01-05 18:07:00,15.9,10.0,30.24,NW,321,0.0,0.0,78,0.00,,,0.00,weatherlink.com 1.10,2013-01-05 23:07:00,
2013-01-05 18:23:00,15.6,11.0,30.23,NW,321,0.0,0.0,80,0.00,,,0.00,weatherlink.com 1.10,2013-01-05 23:23:00,
2013-01-05 18:38:00,14.9,10.0,30.23,NW,322,0.0,0.0,80,0.00,,,0.00,weatherlink.com 1.10,2013-01-05 23:38:00,
2013-01-05 18:53:00,14.6,10.0,30.23,WNW,298,0.0,0.0,83,0.00,,,0.00,weatherlink.com 1.10,2013-01-05 23:53:00,
2013-01-05 19:08:00,14.5,10.0,30.23,WNW,298,0.0,0.0,83,0.00,,,0.00,weatherlink.com 1.10,2013-01-06 00:08:00,
2013-01-05 19:23:00,13.4,9.0,30.23,West,275,0.0,0.0,82,0.00,,,0.00,weatherlink.com 1.10,2013-01-06 00:23:00,
2013-01-05 19:38:00,12.7,8.0,30.23,West,275,0.0,0.0,82,0.00,,,0.00,weatherlink.com 1.10,2013-01-06 00:38:00,
2013-01-05 19:53:00,11.5,7.0,30.23,West,275,0.0,0.0,83,0.00,,,0.00,weatherlink.com 1.10,2013-01-06 00:53:00,
2013-01-05 20:08:00,10.4,7.0,30.23,NNW,344,0.0,0.0,86,0.00,,,0.00,weatherlink.com 1.10,2013-01-06 01:08:00,
2013-01-05 20:23:00,10.9,8.0,30.24,NNW,343,0.0,0.0,86,0.00,,,0.00,weatherlink.com 1.10,2013-01-06 01:23:00,
2013-01-05 20:38:00,10.3,7.0,30.23,NNW,343,0.0,0.0,86,0.00,,,0.00,weatherlink.com 1.10,2013-01-06 01:38:00,
2013-01-05 20:53:00,10.4,7.0,30.23,NNW,343,0.0,0.0,87,0.00,,,0.00,weatherlink.com 1.10,2013-01-06 01:53:00,
2013-01-05 21:19:00,9.9,7.0,30.22,West,270,0.0,0.0,87,0.00,,,0.00,weatherlink.com 1.10,2013-01-06 02:19:00,
2013-01-05 21:38:00,10.7,8.0,30.22,West,271,0.0,0.0,89,0.00,,,0.00,weatherlink.com 1.10,2013-01-06 02:38:00,
2013-01-05 21:53:00,9.9,7.0,30.21,West,272,0.0,0.0,86,0.00,,,0.00,weatherlink.com 1.10,2013-01-06 02:53:00,
2013-01-05 22:08:00,9.8,7.0,30.20,WNW,294,0.0,0.0,87,0.00,,,0.00,weatherlink.com 1.10,2013-01-06 03:08:00,
2013-01-05 22:23:00,10.4,8.0,30.20,WNW,294,0.0,0.0,89,0.00,,,0.00,weatherlink.com 1.10,2013-01-06 03:23:00,
2013-01-05 22:38:00,10.6,8.0,30.22,WNW,295,0.0,0.0,87,0.00,,,0.00,weatherlink.com 1.10,2013-01-06 03:38:00,
2013-01-05 22:53:00,10.9,8.0,30.21,WNW,295,0.0,0.0,88,0.00,,,0.00,weatherlink.com 1.10,2013-01-06 03:53:00,
2013-01-05 23:08:00,10.2,7.0,30.21,WNW,298,0.0,0.0,87,0.00,,,0.00,weatherlink.com 1.10,2013-01-06 04:08:00,
2013-01-05 23:23:00,10.7,8.0,30.20,North,5,0.0,1.0,89,0.00,,,0.00,weatherlink.com 1.10,2013-01-06 04:23:00,
2013-01-05 23:38:00,13.1,10.0,30.21,NNE,15,0.0,3.0,87,0.00,,,0.00,weatherlink.com 1.10,2013-01-06 04:38:00,
2013-01-05 23:53:00,14.7,11.0,30.20,NNE,29,1.0,2.0,85,0.00,,,0.00,weatherlink.com 1.10,2013-01-06 04:53:00,